createdAt,value
2018-10-19T00:01:29.907Z,70.00
2018-10-19T00:04:23.763Z,70.00
2018-10-19T00:07:17.177Z,70.70
2018-10-19T00:10:11.631Z,69.90
2018-10-19T00:13:05.564Z,70.00
2018-10-19T00:15:59.346Z,70.00
2018-10-19T00:18:53.606Z,69.90
2018-10-19T00:21:47.234Z,69.90
2018-10-19T00:24:40.248Z,69.90
2018-10-19T00:27:33.543Z,69.90
2018-10-19T00:30:26.855Z,70.00
2018-10-19T00:33:20.733Z,70.70
2018-10-19T00:36:14.133Z,70.10
2018-10-19T00:39:07.695Z,70.10
2018-10-19T00:42:01.017Z,70.10
2018-10-19T00:44:54.450Z,70.40
2018-10-19T00:47:47.775Z,70.40
2018-10-19T00:50:40.947Z,70.30
2018-10-19T00:53:34.655Z,70.20
2018-10-19T00:56:28.728Z,70.30
2018-10-19T00:59:22.275Z,70.30
2018-10-19T01:02:15.538Z,70.20
2018-10-19T01:05:08.997Z,70.30
2018-10-19T01:08:02.034Z,70.30
2018-10-19T01:10:56.102Z,70.60
2018-10-19T01:13:49.410Z,70.70
2018-10-19T01:16:42.778Z,70.70
2018-10-19T01:19:35.917Z,70.60
2018-10-19T01:22:29.439Z,70.50
2018-10-19T01:25:23.143Z,70.50
2018-10-19T01:28:17.179Z,70.40
2018-10-19T01:31:10.999Z,70.30
2018-10-19T01:34:07.476Z,70.40
2018-10-19T01:37:06.626Z,70.40
2018-10-19T01:40:00.031Z,70.40
2018-10-19T01:42:57.863Z,70.50
2018-10-19T01:46:13.853Z,70.50
2018-10-19T01:49:00.680Z,70.30
2018-10-19T01:51:57.994Z,70.10
2018-10-19T01:54:52.769Z,69.90
2018-10-19T01:57:46.892Z,69.90
2018-10-19T02:00:42.125Z,69.80
2018-10-19T02:03:37.179Z,69.60
2018-10-19T02:06:32.604Z,69.60
2018-10-19T02:09:29.076Z,69.50
2018-10-19T02:12:25.601Z,69.50
2018-10-19T02:15:21.831Z,69.60
2018-10-19T02:18:17.764Z,69.70
2018-10-19T02:21:14.431Z,69.70
2018-10-19T02:24:10.810Z,69.60
2018-10-19T02:27:07.508Z,69.70
2018-10-19T02:30:03.842Z,69.80
2018-10-19T02:32:59.963Z,69.70
2018-10-19T02:35:56.199Z,69.60
2018-10-19T02:38:52.745Z,69.50
2018-10-19T02:41:48.906Z,69.50
2018-10-19T02:44:45.516Z,69.50
2018-10-19T02:47:42.039Z,69.60
2018-10-19T02:50:38.870Z,69.70
2018-10-19T02:53:35.548Z,69.80
2018-10-19T02:56:31.860Z,70.00
2018-10-19T02:59:27.897Z,70.10
2018-10-19T03:02:27.430Z,70.20
2018-10-19T03:05:23.619Z,70.20
2018-10-19T03:08:20.043Z,70.20
2018-10-19T03:11:19.606Z,70.20
2018-10-19T03:14:15.846Z,70.50
2018-10-19T03:17:12.836Z,70.40
2018-10-19T03:20:10.043Z,70.70
2018-10-19T03:23:06.608Z,70.60
2018-10-19T03:26:02.756Z,70.40
2018-10-19T03:28:59.519Z,70.60
2018-10-19T03:31:55.772Z,70.70
2018-10-19T03:34:52.506Z,70.70
2018-10-19T03:37:48.682Z,70.60
2018-10-19T03:40:45.661Z,70.70
2018-10-19T03:43:41.723Z,70.60
2018-10-19T03:46:38.543Z,70.60
2018-10-19T03:49:34.829Z,70.80
2018-10-19T03:52:31.620Z,70.90
2018-10-19T03:55:27.856Z,70.70
2018-10-19T03:58:24.810Z,70.70
2018-10-19T04:01:21.081Z,70.50
2018-10-19T04:04:17.502Z,70.50
2018-10-19T04:07:13.778Z,70.30
2018-10-19T04:10:11.525Z,70.10
2018-10-19T04:13:06.925Z,70.10
2018-10-19T04:16:02.743Z,69.80
2018-10-19T04:18:59.266Z,69.70
2018-10-19T04:21:53.441Z,69.50
2018-10-19T04:24:49.355Z,69.40
2018-10-19T04:27:43.411Z,69.30
2018-10-19T04:30:38.083Z,69.40
2018-10-19T04:33:31.781Z,69.10
2018-10-19T04:36:24.829Z,69.00
2018-10-19T04:39:18.163Z,68.90
2018-10-19T04:42:11.509Z,68.70
2018-10-19T04:45:04.728Z,68.90
2018-10-19T04:47:58.165Z,69.20
2018-10-19T04:50:51.606Z,69.00
2018-10-19T04:53:44.887Z,68.70
2018-10-19T04:56:38.751Z,68.60
2018-10-19T04:59:32.643Z,68.40
2018-10-19T05:02:26.116Z,68.10
2018-10-19T05:05:19.746Z,67.60
2018-10-19T05:08:12.668Z,66.70
2018-10-19T05:11:06.446Z,66.30
2018-10-19T05:14:00.551Z,66.30
2018-10-19T05:16:54.141Z,65.40
2018-10-19T05:19:47.999Z,64.70
2018-10-19T05:22:45.138Z,64.40
2018-10-19T05:25:38.439Z,63.90
2018-10-19T05:28:32.376Z,63.50
2018-10-19T05:31:28.302Z,63.10
2018-10-19T05:34:23.404Z,63.10
2018-10-19T05:37:20.030Z,62.90
2018-10-19T05:40:15.855Z,62.60
2018-10-19T05:43:10.295Z,62.60
2018-10-19T05:46:04.767Z,62.10
2018-10-19T05:48:59.782Z,61.70
2018-10-19T05:51:54.216Z,61.50
2018-10-19T05:54:48.780Z,61.70
2018-10-19T05:57:44.337Z,61.40
2018-10-19T06:00:42.456Z,61.20
2018-10-19T06:03:37.669Z,60.40
2018-10-19T06:06:32.894Z,59.70
2018-10-19T06:09:27.664Z,59.10
2018-10-19T06:12:23.847Z,58.70
2018-10-19T06:15:18.739Z,58.30
2018-10-19T06:18:13.992Z,57.60
2018-10-19T06:21:09.258Z,57.20
2018-10-19T06:24:05.510Z,57.10
2018-10-19T06:26:55.819Z,57.30
2018-10-19T06:29:49.408Z,57.00
2018-10-19T06:32:42.861Z,56.90
2018-10-19T06:35:36.517Z,56.60
2018-10-19T06:38:31.277Z,56.80
2018-10-19T06:41:26.996Z,56.60
2018-10-19T06:44:22.157Z,57.20
2018-10-19T06:47:15.944Z,56.40
2018-10-19T06:50:13.255Z,56.20
2018-10-19T06:53:08.456Z,56.20
2018-10-19T06:56:04.151Z,55.80
2018-10-19T06:58:59.551Z,55.70
2018-10-19T07:01:55.797Z,56.00
2018-10-19T07:04:51.243Z,55.90
2018-10-19T07:07:46.375Z,56.00
2018-10-19T07:10:41.714Z,55.90
2018-10-19T07:13:37.666Z,55.90
2018-10-19T07:16:32.885Z,55.80
2018-10-19T07:19:28.677Z,55.80
2018-10-19T07:22:23.736Z,55.50
2018-10-19T07:25:19.842Z,55.00
2018-10-19T07:28:13.880Z,54.40
2018-10-19T07:31:09.744Z,54.10
2018-10-19T07:34:05.744Z,54.20
2018-10-19T07:37:01.102Z,54.60
2018-10-19T07:39:56.363Z,54.50
2018-10-19T07:42:51.861Z,54.00
2018-10-19T07:45:47.466Z,53.70
2018-10-19T07:48:42.540Z,53.40
2018-10-19T07:51:55.933Z,53.30
2018-10-19T07:54:51.830Z,53.00
2018-10-19T07:57:47.031Z,53.10
2018-10-19T08:00:40.302Z,53.40
2018-10-19T08:03:36.775Z,53.10
2018-10-19T08:06:31.099Z,52.80
2018-10-19T08:09:30.172Z,52.40
2018-10-19T08:12:21.119Z,52.60
2018-10-19T08:15:16.756Z,52.50
2018-10-19T08:18:12.260Z,52.40
2018-10-19T08:21:07.494Z,52.80
2018-10-19T08:24:02.860Z,52.60
2018-10-19T08:26:57.886Z,52.40
2018-10-19T08:29:52.605Z,52.20
2018-10-19T08:32:47.920Z,52.00
2018-10-19T08:35:44.963Z,52.00
2018-10-19T08:38:40.342Z,52.10
2018-10-19T08:41:35.952Z,52.40
2018-10-19T08:44:30.965Z,52.70
2018-10-19T08:47:25.960Z,53.20
2018-10-19T08:50:21.105Z,53.20
2018-10-19T08:53:16.167Z,53.30
2018-10-19T08:56:11.649Z,53.60
2018-10-19T08:59:06.869Z,53.80
2018-10-19T09:02:02.309Z,54.00
2018-10-19T09:04:58.479Z,54.20
2018-10-19T09:07:53.058Z,54.60
2018-10-19T09:13:42.630Z,53.50
2018-10-19T09:16:38.344Z,54.20
2018-10-19T09:19:32.742Z,54.40
2018-10-19T09:22:27.629Z,54.60
2018-10-19T09:25:21.836Z,55.00
2018-10-19T09:28:16.970Z,55.20
2018-10-19T09:31:11.242Z,55.10
2018-10-19T09:34:06.775Z,55.00
2018-10-19T09:37:01.825Z,55.20
2018-10-19T09:39:57.482Z,55.40
2018-10-19T09:42:52.738Z,55.50
2018-10-19T09:45:50.732Z,55.50
2018-10-19T09:48:45.302Z,55.50
2018-10-19T09:51:41.325Z,55.60
2018-10-19T09:54:36.120Z,55.70
2018-10-19T09:57:31.496Z,55.90
2018-10-19T10:00:45.690Z,55.70
2018-10-19T10:03:40.702Z,55.80
2018-10-19T10:06:34.858Z,55.80
2018-10-19T10:09:30.182Z,55.90
2018-10-19T10:12:26.091Z,55.80
2018-10-19T10:15:24.311Z,55.60
2018-10-19T10:18:19.575Z,55.20
2018-10-19T10:21:15.692Z,55.00
2018-10-19T10:24:11.177Z,55.10
2018-10-19T10:27:05.232Z,55.30
2018-10-19T10:29:59.129Z,55.40
2018-10-19T10:32:52.647Z,55.30
2018-10-19T10:35:46.294Z,55.20
2018-10-19T10:38:40.432Z,55.10
2018-10-19T10:41:35.989Z,55.00
2018-10-19T10:44:29.749Z,54.90
2018-10-19T10:47:23.376Z,55.20
2018-10-19T10:50:17.688Z,55.40
2018-10-19T10:53:11.754Z,55.20
2018-10-19T10:56:05.489Z,55.20
2018-10-19T10:58:59.717Z,55.20
2018-10-19T11:01:53.693Z,55.30
2018-10-19T11:04:46.801Z,55.50
2018-10-19T11:07:44.430Z,55.80
2018-10-19T11:10:39.227Z,55.70
2018-10-19T11:13:33.946Z,55.60
2018-10-19T11:16:28.538Z,55.60
2018-10-19T11:19:23.956Z,55.70
2018-10-19T11:22:21.680Z,55.70
2018-10-19T11:25:17.293Z,55.70
2018-10-19T11:28:12.582Z,55.60
2018-10-19T11:31:08.085Z,55.50
2018-10-19T11:34:03.894Z,55.50
2018-10-19T11:36:59.800Z,55.70
2018-10-19T11:40:35.130Z,55.90
2018-10-19T11:43:30.251Z,56.00
2018-10-19T11:46:25.760Z,56.00
2018-10-19T11:49:19.715Z,56.10
2018-10-19T11:52:15.341Z,56.10
2018-10-19T11:55:11.058Z,56.10
2018-10-19T11:58:07.895Z,56.10
2018-10-19T12:01:01.298Z,56.00
2018-10-19T12:03:55.388Z,56.00
2018-10-19T12:06:49.542Z,55.90
2018-10-19T12:09:45.953Z,56.00
2018-10-19T12:12:40.612Z,56.00
2018-10-19T12:15:34.215Z,56.10
2018-10-19T12:18:27.993Z,56.20
2018-10-19T12:21:21.813Z,56.40
2018-10-19T12:24:15.118Z,56.60
2018-10-19T12:27:09.910Z,56.10
2018-10-19T12:30:03.604Z,56.10
2018-10-19T12:32:57.414Z,56.50
2018-10-19T12:35:51.007Z,56.60
2018-10-19T12:38:44.095Z,56.60
2018-10-19T12:41:37.995Z,56.30
2018-10-19T12:44:31.314Z,56.40
2018-10-19T12:47:42.182Z,56.40
2018-10-19T12:50:37.461Z,56.40
2018-10-19T12:53:32.479Z,56.30
2018-10-19T12:56:27.669Z,56.20
2018-10-19T12:59:23.006Z,56.40
2018-10-19T13:02:18.401Z,56.20
2018-10-19T13:05:13.439Z,56.10
2018-10-19T13:08:09.458Z,56.20
2018-10-19T13:11:04.492Z,56.50
2018-10-19T13:14:01.080Z,56.40
2018-10-19T13:16:56.525Z,56.40
2018-10-19T13:19:52.188Z,56.40
2018-10-19T13:22:47.334Z,56.40
2018-10-19T13:25:42.102Z,56.70
2018-10-19T13:28:37.324Z,56.80
2018-10-19T13:31:32.881Z,57.00
2018-10-19T13:34:28.349Z,57.30
2018-10-19T13:37:23.563Z,57.60
2018-10-19T13:40:18.754Z,57.60
2018-10-19T13:43:14.751Z,57.70
2018-10-19T13:46:11.005Z,57.70
2018-10-19T13:49:06.164Z,57.70
2018-10-19T13:52:00.757Z,57.80
2018-10-19T13:54:55.062Z,57.80
2018-10-19T13:57:49.431Z,57.90
2018-10-19T14:00:44.377Z,57.90
2018-10-19T14:03:39.959Z,57.90
2018-10-19T14:06:35.146Z,57.80
2018-10-19T14:09:31.278Z,58.00
2018-10-19T14:12:26.680Z,58.00
2018-10-19T14:15:21.606Z,58.20
2018-10-19T14:18:17.383Z,58.30
2018-10-19T14:21:12.421Z,58.50
2018-10-19T14:24:07.764Z,58.70
2018-10-19T14:27:03.010Z,58.70
2018-10-19T14:29:57.748Z,58.90
2018-10-19T14:32:53.473Z,59.60
2018-10-19T14:35:48.577Z,59.00
2018-10-19T14:38:43.747Z,59.10
2018-10-19T14:41:38.988Z,59.20
2018-10-19T14:44:34.196Z,59.30
2018-10-19T14:47:29.069Z,59.30
2018-10-19T14:50:24.111Z,59.20
2018-10-19T14:53:22.416Z,59.10
2018-10-19T14:56:18.023Z,59.00
2018-10-19T14:59:13.553Z,59.00
2018-10-19T15:02:12.254Z,59.00
2018-10-19T15:05:04.424Z,59.00
2018-10-19T15:10:55.246Z,59.20
2018-10-19T15:13:50.133Z,59.40
2018-10-19T15:16:43.910Z,59.40
2018-10-19T15:19:37.234Z,59.30
2018-10-19T15:22:30.631Z,59.40
2018-10-19T15:25:24.297Z,59.30
2018-10-19T15:28:21.800Z,59.30
2018-10-19T15:31:17.137Z,59.40
2018-10-19T15:34:12.347Z,59.50
2018-10-19T15:37:07.152Z,59.50
2018-10-19T15:40:02.857Z,59.40
2018-10-19T15:43:02.313Z,59.30
2018-10-19T15:45:57.884Z,59.40
2018-10-19T15:48:53.290Z,59.50
2018-10-19T15:51:47.830Z,59.50
2018-10-19T15:54:46.180Z,59.60
2018-10-19T15:57:41.552Z,59.80
2018-10-19T16:00:37.938Z,59.80
2018-10-19T16:03:33.689Z,59.80
2018-10-19T16:06:31.982Z,59.90
2018-10-19T16:09:23.717Z,60.10
2018-10-19T16:12:18.208Z,60.30
2018-10-19T16:15:14.444Z,60.30
2018-10-19T16:18:09.546Z,60.30
2018-10-19T16:21:04.887Z,60.40
2018-10-19T16:23:58.897Z,60.50
2018-10-19T16:26:54.151Z,60.50
2018-10-19T16:29:49.936Z,60.60
2018-10-19T16:32:46.256Z,60.70
2018-10-19T16:35:39.860Z,60.90
2018-10-19T16:38:37.174Z,61.00
2018-10-19T16:41:31.658Z,61.20
2018-10-19T16:44:26.344Z,61.90
2018-10-19T16:47:21.330Z,61.20
2018-10-19T16:50:17.050Z,61.50
2018-10-19T16:53:11.864Z,61.70
2018-10-19T16:56:07.199Z,61.80
2018-10-19T16:59:02.610Z,62.00
2018-10-19T17:01:58.941Z,62.00
2018-10-19T17:04:54.898Z,62.10
2018-10-19T17:07:50.250Z,62.30
2018-10-19T17:10:45.442Z,62.50
2018-10-19T17:13:40.294Z,62.60
2018-10-19T17:16:35.870Z,62.70
2018-10-19T17:19:30.846Z,63.00
2018-10-19T17:22:26.562Z,63.20
2018-10-19T17:25:22.202Z,63.50
2018-10-19T17:28:17.393Z,63.80
2018-10-19T17:31:12.018Z,63.90
2018-10-19T17:34:08.615Z,63.70
2018-10-19T17:37:03.921Z,63.60
2018-10-19T17:39:57.924Z,63.30
2018-10-19T17:42:55.846Z,63.20
2018-10-19T17:45:50.942Z,62.80
2018-10-19T17:48:46.304Z,62.60
2018-10-19T17:51:41.582Z,62.50
2018-10-19T17:54:36.781Z,62.40
2018-10-19T17:57:32.606Z,62.70
2018-10-19T18:00:27.990Z,62.60
2018-10-19T18:03:23.088Z,62.60
2018-10-19T18:06:18.401Z,62.50
2018-10-19T18:09:17.361Z,62.40
2018-10-19T18:12:13.560Z,63.10
2018-10-19T18:15:08.399Z,62.40
2018-10-19T18:18:02.859Z,62.60
2018-10-19T18:20:57.178Z,62.80
2018-10-19T18:23:52.205Z,62.90
2018-10-19T18:26:47.990Z,62.70
2018-10-19T18:29:42.552Z,62.60
2018-10-19T18:32:37.979Z,62.60
2018-10-19T18:35:33.338Z,62.70
2018-10-19T18:38:28.929Z,62.80
2018-10-19T18:41:27.638Z,62.90
2018-10-19T18:44:22.782Z,62.90
2018-10-19T18:47:18.020Z,62.90
2018-10-19T18:50:19.644Z,63.00
2018-10-19T18:53:14.903Z,63.20
2018-10-19T18:56:10.061Z,63.40
2018-10-19T18:59:05.916Z,63.70
2018-10-19T19:02:01.378Z,63.90
2018-10-19T19:04:56.540Z,64.00
2018-10-19T19:07:51.578Z,64.00
2018-10-19T19:10:46.496Z,64.10
2018-10-19T19:13:52.198Z,64.20
2018-10-19T19:16:47.707Z,64.30
2018-10-19T19:19:42.753Z,64.40
2018-10-19T19:22:41.038Z,64.50
2018-10-19T19:25:52.835Z,64.50
2018-10-19T19:28:48.657Z,64.70
2018-10-19T19:31:43.974Z,64.60
2018-10-19T19:34:39.499Z,64.90
2018-10-19T19:37:34.429Z,64.90
2018-10-19T19:40:29.827Z,65.00
2018-10-19T19:43:25.478Z,64.90
2018-10-19T19:46:20.113Z,64.70
2018-10-19T19:49:31.576Z,64.70
2018-10-19T19:52:25.805Z,64.60
2018-10-19T19:55:20.265Z,64.70
2018-10-19T19:58:15.059Z,64.90
2018-10-19T20:01:10.469Z,65.00
2018-10-19T20:04:04.742Z,65.00
2018-10-19T20:06:59.310Z,65.10
2018-10-19T20:09:54.404Z,65.20
2018-10-19T20:12:48.223Z,65.40
2018-10-19T20:15:43.642Z,65.60
2018-10-19T20:18:39.464Z,65.70
2018-10-19T20:21:34.393Z,65.70
2018-10-19T20:24:28.915Z,65.90
2018-10-19T20:27:22.918Z,66.10
2018-10-19T20:30:17.675Z,66.20
2018-10-19T20:33:11.417Z,66.30
2018-10-19T20:36:05.919Z,66.50
2018-10-19T20:39:00.264Z,66.50
2018-10-19T20:41:54.919Z,66.50
2018-10-19T20:44:48.570Z,66.60
2018-10-19T20:47:44.136Z,66.70
2018-10-19T20:50:38.969Z,66.70
2018-10-19T20:53:37.215Z,66.90
2018-10-19T20:56:27.900Z,66.80
2018-10-19T20:59:23.343Z,66.90
2018-10-19T21:02:18.635Z,67.00
2018-10-19T21:05:15.129Z,67.00
2018-10-19T21:08:10.203Z,67.10
2018-10-19T21:11:04.619Z,67.20
2018-10-19T21:14:00.936Z,67.40
2018-10-19T21:16:56.124Z,67.30
2018-10-19T21:19:50.104Z,67.30
2018-10-19T21:22:44.954Z,67.50
2018-10-19T21:25:40.447Z,67.70
2018-10-19T21:28:35.595Z,67.80
2018-10-19T21:31:30.702Z,67.90
2018-10-19T21:34:25.944Z,68.10
2018-10-19T21:37:19.997Z,68.30
2018-10-19T21:40:18.518Z,68.40
2018-10-19T21:43:09.368Z,68.40
2018-10-19T21:46:03.232Z,68.60
2018-10-19T21:48:57.145Z,68.70
2018-10-19T21:51:51.856Z,68.80
2018-10-19T21:54:45.164Z,69.00
2018-10-19T21:57:40.055Z,69.10
2018-10-19T22:00:38.268Z,68.80
2018-10-19T22:03:34.002Z,68.90
2018-10-19T22:06:28.360Z,68.80
2018-10-19T22:09:26.285Z,68.70
2018-10-19T22:12:24.242Z,68.70
2018-10-19T22:15:18.996Z,68.80
2018-10-19T22:18:13.240Z,68.80
2018-10-19T22:21:08.925Z,68.90
2018-10-19T22:24:03.539Z,69.00
2018-10-19T22:26:57.712Z,69.10
2018-10-19T22:29:52.287Z,69.20
2018-10-19T22:32:47.730Z,69.20
2018-10-19T22:35:42.954Z,69.30
2018-10-19T22:38:38.114Z,70.10
2018-10-19T22:41:31.583Z,69.40
2018-10-19T22:44:25.575Z,69.50
2018-10-19T22:47:20.244Z,69.50
2018-10-19T22:50:14.173Z,69.50
2018-10-19T22:53:11.971Z,69.50
2018-10-19T22:56:07.828Z,69.50
2018-10-19T22:59:02.868Z,69.50
2018-10-19T23:01:58.426Z,69.60
2018-10-19T23:04:53.493Z,69.70
2018-10-19T23:07:48.446Z,69.80
2018-10-19T23:10:43.196Z,69.90
2018-10-19T23:13:37.455Z,70.00
2018-10-19T23:16:33.207Z,70.00
2018-10-19T23:19:28.318Z,70.20
2018-10-19T23:22:27.339Z,70.10
2018-10-19T23:25:22.049Z,70.20
2018-10-19T23:28:16.204Z,70.20
2018-10-19T23:31:11.186Z,70.40
2018-10-19T23:34:05.701Z,70.50
2018-10-19T23:36:59.953Z,70.50
2018-10-19T23:39:54.454Z,70.60
2018-10-19T23:42:48.061Z,70.70
2018-10-19T23:45:42.064Z,70.80
2018-10-19T23:48:35.615Z,70.80
2018-10-19T23:51:29.421Z,70.80
2018-10-19T23:54:23.606Z,71.00
2018-10-19T23:57:16.686Z,71.00
